sensor_id;sensor_type;location;lat;lon;timestamp;temperature;humidity
60353;DHT22;46196;52.970;6.954;2023-03-01T00:00:21;-0.50;99.90
60353;DHT22;46196;52.970;6.954;2023-03-01T00:02:47;-0.60;99.90
60353;DHT22;46196;52.970;6.954;2023-03-01T00:05:12;-0.60;99.90
60353;DHT22;46196;52.970;6.954;2023-03-01T00:07:38;-0.30;99.90
60353;DHT22;46196;52.970;6.954;2023-03-01T00:10:04;-0.70;99.90
60353;DHT22;46196;52.970;6.954;2023-03-01T00:12:31;-0.70;99.90
60353;DHT22;46196;52.970;6.954;2023-03-01T00:14:57;-0.70;99.90
60353;DHT22;46196;52.970;6.954;2023-03-01T00:17:23;-0.70;99.90
60353;DHT22;46196;52.970;6.954;2023-03-01T00:19:48;-0.80;99.90
60353;DHT22;46196;52.970;6.954;2023-03-01T00:22:14;-0.80;99.90
60353;DHT22;46196;52.970;6.954;2023-03-01T00:24:40;-0.80;99.90
60353;DHT22;46196;52.970;6.954;2023-03-01T00:27:06;-0.90;99.90
60353;DHT22;46196;52.970;6.954;2023-03-01T00:29:32;-0.80;99.90
60353;DHT22;46196;52.970;6.954;2023-03-01T00:31:58;-0.90;99.90
60353;DHT22;46196;52.970;6.954;2023-03-01T00:34:24;0.40;99.90
60353;DHT22;46196;52.970;6.954;2023-03-01T00:36:50;-1.00;99.90
60353;DHT22;46196;52.970;6.954;2023-03-01T00:39:16;-1.00;99.90
60353;DHT22;46196;52.970;6.954;2023-03-01T00:41:42;-1.00;99.90
60353;DHT22;46196;52.970;6.954;2023-03-01T00:44:09;-1.00;99.90
60353;DHT22;46196;52.970;6.954;2023-03-01T00:46:35;-1.00;99.90
60353;DHT22;46196;52.970;6.954;2023-03-01T00:49:00;-1.10;99.90
60353;DHT22;46196;52.970;6.954;2023-03-01T00:51:28;-1.10;99.90
60353;DHT22;46196;52.970;6.954;2023-03-01T00:53:56;-1.10;99.90
60353;DHT22;46196;52.970;6.954;2023-03-01T00:56:22;-1.10;99.90
60353;DHT22;46196;52.970;6.954;2023-03-01T00:58:48;-2.10;99.90
60353;DHT22;46196;52.970;6.954;2023-03-01T01:01:23;-1.20;99.90
60353;DHT22;46196;52.970;6.954;2023-03-01T01:06:32;-1.20;99.90
60353;DHT22;46196;52.970;6.954;2023-03-01T01:08:58;-0.60;99.90
60353;DHT22;46196;52.970;6.954;2023-03-01T01:11:26;-1.20;99.90
60353;DHT22;46196;52.970;6.954;2023-03-01T01:13:52;-1.30;99.90
60353;DHT22;46196;52.970;6.954;2023-03-01T01:16:20;-1.30;99.90
60353;DHT22;46196;52.970;6.954;2023-03-01T01:18:46;0.10;99.90
60353;DHT22;46196;52.970;6.954;2023-03-01T01:21:15;-1.00;99.90
60353;DHT22;46196;52.970;6.954;2023-03-01T01:23:42;-1.30;99.90
60353;DHT22;46196;52.970;6.954;2023-03-01T01:26:20;-1.30;99.90
60353;DHT22;46196;52.970;6.954;2023-03-01T01:28:47;-1.30;99.90
60353;DHT22;46196;52.970;6.954;2023-03-01T01:31:13;-1.30;99.90
60353;DHT22;46196;52.970;6.954;2023-03-01T01:33:39;-1.40;99.90
60353;DHT22;46196;52.970;6.954;2023-03-01T01:36:06;-1.40;99.90
60353;DHT22;46196;52.970;6.954;2023-03-01T01:38:33;-1.40;99.90
60353;DHT22;46196;52.970;6.954;2023-03-01T01:40:59;-1.40;99.90
60353;DHT22;46196;52.970;6.954;2023-03-01T01:43:28;-1.40;99.90
60353;DHT22;46196;52.970;6.954;2023-03-01T01:46:01;-1.50;99.90
60353;DHT22;46196;52.970;6.954;2023-03-01T01:48:42;-1.50;99.90
60353;DHT22;46196;52.970;6.954;2023-03-01T01:51:15;1.00;99.90
60353;DHT22;46196;52.970;6.954;2023-03-01T01:53:45;-1.50;99.90
60353;DHT22;46196;52.970;6.954;2023-03-01T01:56:12;-1.60;99.90
60353;DHT22;46196;52.970;6.954;2023-03-01T01:58:41;-1.60;99.90
60353;DHT22;46196;52.970;6.954;2023-03-01T02:01:07;-1.40;99.90
60353;DHT22;46196;52.970;6.954;2023-03-01T02:03:34;-1.60;99.90
60353;DHT22;46196;52.970;6.954;2023-03-01T02:08:39;0.00;99.90
60353;DHT22;46196;52.970;6.954;2023-03-01T02:11:07;-1.70;99.90
60353;DHT22;46196;52.970;6.954;2023-03-01T02:13:34;-2.00;99.90
60353;DHT22;46196;52.970;6.954;2023-03-01T02:16:11;-1.70;99.90
60353;DHT22;46196;52.970;6.954;2023-03-01T02:18:40;-1.70;99.90
60353;DHT22;46196;52.970;6.954;2023-03-01T02:21:35;-1.80;99.90
60353;DHT22;46196;52.970;6.954;2023-03-01T02:24:17;-1.80;99.90
60353;DHT22;46196;52.970;6.954;2023-03-01T02:26:50;-1.80;99.90
60353;DHT22;46196;52.970;6.954;2023-03-01T02:29:17;-1.80;99.90
60353;DHT22;46196;52.970;6.954;2023-03-01T02:31:42;-1.80;99.90
60353;DHT22;46196;52.970;6.954;2023-03-01T02:34:15;-1.80;99.90
60353;DHT22;46196;52.970;6.954;2023-03-01T02:36:46;-1.90;99.90
60353;DHT22;46196;52.970;6.954;2023-03-01T02:39:19;-1.90;99.90
60353;DHT22;46196;52.970;6.954;2023-03-01T02:41:50;-1.90;99.90
60353;DHT22;46196;52.970;6.954;2023-03-01T02:44:17;-1.90;99.90
60353;DHT22;46196;52.970;6.954;2023-03-01T02:46:45;-1.90;99.90
60353;DHT22;46196;52.970;6.954;2023-03-01T02:49:38;-1.90;99.90
60353;DHT22;46196;52.970;6.954;2023-03-01T02:57:28;-2.00;99.90
60353;DHT22;46196;52.970;6.954;2023-03-01T02:59:55;-2.90;99.90
60353;DHT22;46196;52.970;6.954;2023-03-01T03:02:25;-2.10;99.90
60353;DHT22;46196;52.970;6.954;2023-03-01T03:05:11;-2.10;99.90
60353;DHT22;46196;52.970;6.954;2023-03-01T03:07:40;-2.10;99.90
60353;DHT22;46196;52.970;6.954;2023-03-01T03:10:10;-0.90;99.90
60353;DHT22;46196;52.970;6.954;2023-03-01T03:12:37;-2.10;99.90
60353;DHT22;46196;52.970;6.954;2023-03-01T03:15:05;-2.10;99.90
60353;DHT22;46196;52.970;6.954;2023-03-01T03:17:37;-2.10;99.90
60353;DHT22;46196;52.970;6.954;2023-03-01T03:20:04;-2.20;99.90
60353;DHT22;46196;52.970;6.954;2023-03-01T03:22:31;-2.20;99.90
60353;DHT22;46196;52.970;6.954;2023-03-01T03:25:04;-1.30;99.90
60353;DHT22;46196;52.970;6.954;2023-03-01T03:27:30;-2.20;99.90
60353;DHT22;46196;52.970;6.954;2023-03-01T03:29:57;-0.70;99.90
60353;DHT22;46196;52.970;6.954;2023-03-01T03:32:23;-2.20;99.90
60353;DHT22;46196;52.970;6.954;2023-03-01T03:34:49;-2.30;99.90
60353;DHT22;46196;52.970;6.954;2023-03-01T03:37:14;-2.30;99.90
60353;DHT22;46196;52.970;6.954;2023-03-01T03:40:00;-2.30;99.90
60353;DHT22;46196;52.970;6.954;2023-03-01T03:42:26;-2.30;99.90
60353;DHT22;46196;52.970;6.954;2023-03-01T03:44:51;-2.30;99.90
60353;DHT22;46196;52.970;6.954;2023-03-01T03:47:17;-2.30;99.90
60353;DHT22;46196;52.970;6.954;2023-03-01T03:49:43;-2.30;99.90
60353;DHT22;46196;52.970;6.954;2023-03-01T03:52:08;-2.30;99.90
60353;DHT22;46196;52.970;6.954;2023-03-01T03:54:40;-2.30;99.90
60353;DHT22;46196;52.970;6.954;2023-03-01T03:57:06;-2.40;99.90
60353;DHT22;46196;52.970;6.954;2023-03-01T03:59:32;-2.30;99.90
60353;DHT22;46196;52.970;6.954;2023-03-01T04:01:57;-2.40;99.90
60353;DHT22;46196;52.970;6.954;2023-03-01T04:04:23;-2.40;99.90
60353;DHT22;46196;52.970;6.954;2023-03-01T04:06:49;-2.10;99.90
60353;DHT22;46196;52.970;6.954;2023-03-01T04:09:14;-2.40;99.90
60353;DHT22;46196;52.970;6.954;2023-03-01T04:11:40;-2.40;99.90
60353;DHT22;46196;52.970;6.954;2023-03-01T04:14:06;-2.40;99.90
60353;DHT22;46196;52.970;6.954;2023-03-01T04:16:32;-2.40;99.90
60353;DHT22;46196;52.970;6.954;2023-03-01T04:18:57;-2.50;99.90
60353;DHT22;46196;52.970;6.954;2023-03-01T04:21:25;-2.40;99.90
60353;DHT22;46196;52.970;6.954;2023-03-01T04:23:51;-3.90;99.90
60353;DHT22;46196;52.970;6.954;2023-03-01T04:26:19;-2.50;99.90
60353;DHT22;46196;52.970;6.954;2023-03-01T04:28:45;-2.50;99.90
60353;DHT22;46196;52.970;6.954;2023-03-01T04:31:16;-2.50;99.90
60353;DHT22;46196;52.970;6.954;2023-03-01T04:33:50;-2.50;99.90
60353;DHT22;46196;52.970;6.954;2023-03-01T04:36:18;-2.50;99.90
60353;DHT22;46196;52.970;6.954;2023-03-01T04:38:45;-2.50;99.90
60353;DHT22;46196;52.970;6.954;2023-03-01T04:41:16;-2.50;99.90
60353;DHT22;46196;52.970;6.954;2023-03-01T04:43:42;-2.50;99.90
60353;DHT22;46196;52.970;6.954;2023-03-01T04:46:11;-2.00;99.90
60353;DHT22;46196;52.970;6.954;2023-03-01T04:48:39;-2.60;99.90
60353;DHT22;46196;52.970;6.954;2023-03-01T04:51:05;-2.60;99.90
60353;DHT22;46196;52.970;6.954;2023-03-01T04:53:31;-2.60;99.90
60353;DHT22;46196;52.970;6.954;2023-03-01T04:55:58;-2.70;99.90
60353;DHT22;46196;52.970;6.954;2023-03-01T04:58:25;-1.60;99.90
60353;DHT22;46196;52.970;6.954;2023-03-01T05:00:52;-2.70;99.90
60353;DHT22;46196;52.970;6.954;2023-03-01T05:03:18;-2.70;99.90
60353;DHT22;46196;52.970;6.954;2023-03-01T05:05:46;-2.70;99.90
60353;DHT22;46196;52.970;6.954;2023-03-01T05:08:12;-2.70;99.90
60353;DHT22;46196;52.970;6.954;2023-03-01T05:10:51;-2.80;99.90
60353;DHT22;46196;52.970;6.954;2023-03-01T05:13:18;-2.80;99.90
60353;DHT22;46196;52.970;6.954;2023-03-01T05:16:00;-2.70;99.90
60353;DHT22;46196;52.970;6.954;2023-03-01T05:18:28;-2.80;99.90
60353;DHT22;46196;52.970;6.954;2023-03-01T05:20:54;-2.80;99.90
60353;DHT22;46196;52.970;6.954;2023-03-01T05:23:24;-2.80;99.90
60353;DHT22;46196;52.970;6.954;2023-03-01T05:25:50;-2.80;99.90
60353;DHT22;46196;52.970;6.954;2023-03-01T05:28:19;-2.80;99.90
60353;DHT22;46196;52.970;6.954;2023-03-01T05:30:45;-2.90;99.90
60353;DHT22;46196;52.970;6.954;2023-03-01T05:33:11;-2.90;99.90
60353;DHT22;46196;52.970;6.954;2023-03-01T05:35:41;-2.90;99.90
60353;DHT22;46196;52.970;6.954;2023-03-01T05:38:08;-2.90;99.90
60353;DHT22;46196;52.970;6.954;2023-03-01T05:40:34;-2.90;99.90
60353;DHT22;46196;52.970;6.954;2023-03-01T05:43:00;-2.90;99.90
60353;DHT22;46196;52.970;6.954;2023-03-01T05:45:30;-2.90;99.90
60353;DHT22;46196;52.970;6.954;2023-03-01T05:47:58;-3.00;99.90
60353;DHT22;46196;52.970;6.954;2023-03-01T05:50:27;-3.00;99.90
60353;DHT22;46196;52.970;6.954;2023-03-01T05:53:02;-3.00;99.90
60353;DHT22;46196;52.970;6.954;2023-03-01T05:55:29;-3.00;99.90
60353;DHT22;46196;52.970;6.954;2023-03-01T05:57:59;-3.00;99.90
60353;DHT22;46196;52.970;6.954;2023-03-01T06:00:26;-3.00;99.90
60353;DHT22;46196;52.970;6.954;2023-03-01T06:02:53;-3.00;99.90
60353;DHT22;46196;52.970;6.954;2023-03-01T06:05:20;-3.00;99.90
60353;DHT22;46196;52.970;6.954;2023-03-01T06:07:46;-3.00;99.90
60353;DHT22;46196;52.970;6.954;2023-03-01T06:10:12;-3.00;99.90
60353;DHT22;46196;52.970;6.954;2023-03-01T06:12:40;-3.00;99.90
60353;DHT22;46196;52.970;6.954;2023-03-01T06:15:06;-3.10;99.90
60353;DHT22;46196;52.970;6.954;2023-03-01T06:17:34;-3.00;99.90
60353;DHT22;46196;52.970;6.954;2023-03-01T06:20:05;-3.10;99.90
60353;DHT22;46196;52.970;6.954;2023-03-01T06:22:31;-3.10;99.90
60353;DHT22;46196;52.970;6.954;2023-03-01T06:24:57;-3.10;99.90
60353;DHT22;46196;52.970;6.954;2023-03-01T06:27:23;-3.10;99.90
60353;DHT22;46196;52.970;6.954;2023-03-01T06:29:49;-3.10;99.90
60353;DHT22;46196;52.970;6.954;2023-03-01T06:32:14;-3.10;99.90
60353;DHT22;46196;52.970;6.954;2023-03-01T06:34:40;-3.10;99.90
60353;DHT22;46196;52.970;6.954;2023-03-01T06:37:06;-3.10;99.90
60353;DHT22;46196;52.970;6.954;2023-03-01T06:39:32;-3.10;99.90
60353;DHT22;46196;52.970;6.954;2023-03-01T06:41:59;-3.00;99.90
60353;DHT22;46196;52.970;6.954;2023-03-01T06:44:25;-3.00;99.90
60353;DHT22;46196;52.970;6.954;2023-03-01T06:46:51;-3.00;99.90
60353;DHT22;46196;52.970;6.954;2023-03-01T06:49:16;-3.00;99.90
60353;DHT22;46196;52.970;6.954;2023-03-01T06:51:43;-3.00;99.90
60353;DHT22;46196;52.970;6.954;2023-03-01T06:54:09;-3.00;99.90
60353;DHT22;46196;52.970;6.954;2023-03-01T06:56:35;-2.90;99.90
60353;DHT22;46196;52.970;6.954;2023-03-01T06:59:01;-2.90;99.90
60353;DHT22;46196;52.970;6.954;2023-03-01T07:01:28;-2.80;99.90
60353;DHT22;46196;52.970;6.954;2023-03-01T07:03:55;-2.80;99.90
60353;DHT22;46196;52.970;6.954;2023-03-01T07:06:21;-2.80;99.90
60353;DHT22;46196;52.970;6.954;2023-03-01T07:08:47;-2.70;99.90
60353;DHT22;46196;52.970;6.954;2023-03-01T07:11:13;-2.70;99.90
60353;DHT22;46196;52.970;6.954;2023-03-01T07:13:39;-2.60;99.90
60353;DHT22;46196;52.970;6.954;2023-03-01T07:16:06;-2.60;99.90
60353;DHT22;46196;52.970;6.954;2023-03-01T07:18:32;-2.50;99.90
60353;DHT22;46196;52.970;6.954;2023-03-01T07:20:58;-2.40;99.90
60353;DHT22;46196;52.970;6.954;2023-03-01T07:23:23;-2.40;99.90
60353;DHT22;46196;52.970;6.954;2023-03-01T07:25:54;-2.30;99.90
60353;DHT22;46196;52.970;6.954;2023-03-01T07:28:20;-2.30;99.90
60353;DHT22;46196;52.970;6.954;2023-03-01T07:30:47;-2.20;99.90
60353;DHT22;46196;52.970;6.954;2023-03-01T07:33:13;-2.10;99.90
60353;DHT22;46196;52.970;6.954;2023-03-01T07:35:39;-2.10;99.90
60353;DHT22;46196;52.970;6.954;2023-03-01T07:38:04;-2.00;99.90
60353;DHT22;46196;52.970;6.954;2023-03-01T07:40:30;-1.90;99.90
60353;DHT22;46196;52.970;6.954;2023-03-01T07:42:57;-1.80;99.90
60353;DHT22;46196;52.970;6.954;2023-03-01T07:45:24;-1.70;99.90
60353;DHT22;46196;52.970;6.954;2023-03-01T07:47:51;-1.60;99.90
60353;DHT22;46196;52.970;6.954;2023-03-01T07:50:17;-1.50;99.90
60353;DHT22;46196;52.970;6.954;2023-03-01T07:52:46;-1.40;99.90
60353;DHT22;46196;52.970;6.954;2023-03-01T07:55:12;-1.30;99.90
60353;DHT22;46196;52.970;6.954;2023-03-01T07:57:38;-1.20;99.90
60353;DHT22;46196;52.970;6.954;2023-03-01T08:00:05;-1.10;99.90
60353;DHT22;46196;52.970;6.954;2023-03-01T08:02:31;-1.10;99.90
60353;DHT22;46196;52.970;6.954;2023-03-01T08:04:57;-1.00;99.90
60353;DHT22;46196;52.970;6.954;2023-03-01T08:07:22;-0.70;99.90
60353;DHT22;46196;52.970;6.954;2023-03-01T08:09:48;0.00;99.90
60353;DHT22;46196;52.970;6.954;2023-03-01T08:12:14;1.10;99.90
60353;DHT22;46196;52.970;6.954;2023-03-01T08:14:42;2.40;99.90
60353;DHT22;46196;52.970;6.954;2023-03-01T08:17:08;3.50;99.90
60353;DHT22;46196;52.970;6.954;2023-03-01T08:19:34;4.50;99.90
60353;DHT22;46196;52.970;6.954;2023-03-01T08:22:02;5.30;99.90
60353;DHT22;46196;52.970;6.954;2023-03-01T08:24:28;6.40;99.90
60353;DHT22;46196;52.970;6.954;2023-03-01T08:26:54;7.20;99.90
60353;DHT22;46196;52.970;6.954;2023-03-01T08:29:20;8.00;99.90
60353;DHT22;46196;52.970;6.954;2023-03-01T08:31:45;8.70;99.90
60353;DHT22;46196;52.970;6.954;2023-03-01T08:34:15;9.30;99.90
60353;DHT22;46196;52.970;6.954;2023-03-01T08:36:44;9.80;99.90
60353;DHT22;46196;52.970;6.954;2023-03-01T08:39:12;10.30;99.90
60353;DHT22;46196;52.970;6.954;2023-03-01T08:41:39;10.70;99.90
60353;DHT22;46196;52.970;6.954;2023-03-01T08:44:05;11.20;99.90
60353;DHT22;46196;52.970;6.954;2023-03-01T08:46:33;11.50;99.90
60353;DHT22;46196;52.970;6.954;2023-03-01T08:48:59;11.80;99.90
60353;DHT22;46196;52.970;6.954;2023-03-01T08:51:26;12.00;99.90
60353;DHT22;46196;52.970;6.954;2023-03-01T08:53:52;12.20;99.30
60353;DHT22;46196;52.970;6.954;2023-03-01T08:56:18;12.40;98.30
60353;DHT22;46196;52.970;6.954;2023-03-01T08:58:46;12.50;97.20
60353;DHT22;46196;52.970;6.954;2023-03-01T09:01:17;12.60;96.00
60353;DHT22;46196;52.970;6.954;2023-03-01T09:03:44;12.60;95.10
60353;DHT22;46196;52.970;6.954;2023-03-01T09:06:11;12.40;96.90
60353;DHT22;46196;52.970;6.954;2023-03-01T09:08:44;12.30;95.50
60353;DHT22;46196;52.970;6.954;2023-03-01T09:11:12;12.10;92.00
60353;DHT22;46196;52.970;6.954;2023-03-01T09:13:39;11.80;96.50
60353;DHT22;46196;52.970;6.954;2023-03-01T09:16:07;11.60;96.80
60353;DHT22;46196;52.970;6.954;2023-03-01T09:18:33;11.50;96.70
60353;DHT22;46196;52.970;6.954;2023-03-01T09:21:12;11.40;99.00
60353;DHT22;46196;52.970;6.954;2023-03-01T09:23:40;11.30;98.20
60353;DHT22;46196;52.970;6.954;2023-03-01T09:26:08;11.10;99.10
60353;DHT22;46196;52.970;6.954;2023-03-01T09:28:35;10.80;96.40
60353;DHT22;46196;52.970;6.954;2023-03-01T09:31:02;10.50;99.90
60353;DHT22;46196;52.970;6.954;2023-03-01T09:33:30;10.30;99.90
60353;DHT22;46196;52.970;6.954;2023-03-01T09:36:03;9.90;99.90
60353;DHT22;46196;52.970;6.954;2023-03-01T09:38:30;9.60;99.90
60353;DHT22;46196;52.970;6.954;2023-03-01T09:40:56;9.30;99.90
60353;DHT22;46196;52.970;6.954;2023-03-01T09:45:53;8.90;99.90
60353;DHT22;46196;52.970;6.954;2023-03-01T09:48:24;8.80;99.90
60353;DHT22;46196;52.970;6.954;2023-03-01T09:50:51;8.80;99.90
60353;DHT22;46196;52.970;6.954;2023-03-01T09:53:23;8.80;99.90
60353;DHT22;46196;52.970;6.954;2023-03-01T10:04:11;8.80;99.90
60353;DHT22;46196;52.970;6.954;2023-03-01T10:06:40;8.90;99.90
60353;DHT22;46196;52.970;6.954;2023-03-01T10:09:16;9.00;99.90
60353;DHT22;46196;52.970;6.954;2023-03-01T10:11:51;9.00;99.90
60353;DHT22;46196;52.970;6.954;2023-03-01T10:17:48;9.00;99.90
60353;DHT22;46196;52.970;6.954;2023-03-01T10:22:42;8.90;99.90
60353;DHT22;46196;52.970;6.954;2023-03-01T10:25:12;8.80;99.90
60353;DHT22;46196;52.970;6.954;2023-03-01T10:27:53;8.80;99.90
60353;DHT22;46196;52.970;6.954;2023-03-01T10:30:34;8.80;99.90
60353;DHT22;46196;52.970;6.954;2023-03-01T10:33:01;8.80;99.90
60353;DHT22;46196;52.970;6.954;2023-03-01T10:35:29;8.90;99.90
60353;DHT22;46196;52.970;6.954;2023-03-01T10:38:09;8.90;99.90
60353;DHT22;46196;52.970;6.954;2023-03-01T10:40:37;9.00;99.90
60353;DHT22;46196;52.970;6.954;2023-03-01T10:43:15;9.00;99.90
60353;DHT22;46196;52.970;6.954;2023-03-01T10:45:40;9.00;99.90
60353;DHT22;46196;52.970;6.954;2023-03-01T10:48:18;9.00;99.90
60353;DHT22;46196;52.970;6.954;2023-03-01T10:51:07;9.00;99.90
60353;DHT22;46196;52.970;6.954;2023-03-01T10:53:40;9.00;98.10
60353;DHT22;46196;52.970;6.954;2023-03-01T10:56:12;9.10;99.90
60353;DHT22;46196;52.970;6.954;2023-03-01T10:58:41;9.10;98.50
60353;DHT22;46196;52.970;6.954;2023-03-01T11:01:30;9.10;99.90
60353;DHT22;46196;52.970;6.954;2023-03-01T11:06:33;9.30;99.20
60353;DHT22;46196;52.970;6.954;2023-03-01T11:09:20;9.30;97.70
60353;DHT22;46196;52.970;6.954;2023-03-01T11:11:50;9.30;97.60
60353;DHT22;46196;52.970;6.954;2023-03-01T11:14:25;9.30;96.40
60353;DHT22;46196;52.970;6.954;2023-03-01T11:22:55;9.50;98.30
60353;DHT22;46196;52.970;6.954;2023-03-01T11:25:35;9.60;96.90
60353;DHT22;46196;52.970;6.954;2023-03-01T11:28:04;9.70;94.80
60353;DHT22;46196;52.970;6.954;2023-03-01T11:30:32;9.80;95.70
60353;DHT22;46196;52.970;6.954;2023-03-01T11:36:07;9.90;89.80
60353;DHT22;46196;52.970;6.954;2023-03-01T11:38:37;9.90;91.60
60353;DHT22;46196;52.970;6.954;2023-03-01T11:41:18;10.00;91.90
60353;DHT22;46196;52.970;6.954;2023-03-01T12:00:16;10.20;92.00
60353;DHT22;46196;52.970;6.954;2023-03-01T12:08:42;10.60;91.40
60353;DHT22;46196;52.970;6.954;2023-03-01T12:24:23;10.80;86.40
60353;DHT22;46196;52.970;6.954;2023-03-01T12:29:37;10.80;89.40
60353;DHT22;46196;52.970;6.954;2023-03-01T12:32:25;10.90;83.10
60353;DHT22;46196;52.970;6.954;2023-03-01T12:37:53;11.00;79.10
60353;DHT22;46196;52.970;6.954;2023-03-01T12:45:45;11.80;80.80
60353;DHT22;46196;52.970;6.954;2023-03-01T12:51:26;12.60;82.40
60353;DHT22;46196;52.970;6.954;2023-03-01T12:53:55;13.20;67.10
60353;DHT22;46196;52.970;6.954;2023-03-01T12:56:25;13.30;59.60
60353;DHT22;46196;52.970;6.954;2023-03-01T13:07:04;13.20;61.30
60353;DHT22;46196;52.970;6.954;2023-03-01T13:10:02;13.00;62.20
60353;DHT22;46196;52.970;6.954;2023-03-01T13:20:27;13.70;62.60
60353;DHT22;46196;52.970;6.954;2023-03-01T13:31:01;13.70;56.60
60353;DHT22;46196;52.970;6.954;2023-03-01T13:35:54;13.30;59.30
60353;DHT22;46196;52.970;6.954;2023-03-01T13:41:08;12.90;59.40
60353;DHT22;46196;52.970;6.954;2023-03-01T13:43:38;12.70;57.80
60353;DHT22;46196;52.970;6.954;2023-03-01T13:46:20;12.40;59.70
60353;DHT22;46196;52.970;6.954;2023-03-01T13:48:50;12.30;61.90
60353;DHT22;46196;52.970;6.954;2023-03-01T13:51:23;12.10;62.10
60353;DHT22;46196;52.970;6.954;2023-03-01T13:53:51;12.10;61.70
60353;DHT22;46196;52.970;6.954;2023-03-01T13:56:25;12.10;62.70
60353;DHT22;46196;52.970;6.954;2023-03-01T13:59:01;12.10;62.80
60353;DHT22;46196;52.970;6.954;2023-03-01T14:01:35;12.00;63.70
60353;DHT22;46196;52.970;6.954;2023-03-01T14:04:03;12.10;67.90
60353;DHT22;46196;52.970;6.954;2023-03-01T14:06:31;12.20;65.70
60353;DHT22;46196;52.970;6.954;2023-03-01T14:09:22;12.20;66.00
60353;DHT22;46196;52.970;6.954;2023-03-01T14:15:02;12.00;63.90
60353;DHT22;46196;52.970;6.954;2023-03-01T14:20:22;11.80;67.20
60353;DHT22;46196;52.970;6.954;2023-03-01T14:22:51;11.80;70.00
60353;DHT22;46196;52.970;6.954;2023-03-01T14:30:31;11.80;66.90
60353;DHT22;46196;52.970;6.954;2023-03-01T14:33:02;11.70;71.80
60353;DHT22;46196;52.970;6.954;2023-03-01T14:35:34;11.70;72.70
60353;DHT22;46196;52.970;6.954;2023-03-01T14:38:01;11.70;68.50
60353;DHT22;46196;52.970;6.954;2023-03-01T14:40:33;11.70;72.60
60353;DHT22;46196;52.970;6.954;2023-03-01T14:43:02;11.60;71.50
60353;DHT22;46196;52.970;6.954;2023-03-01T14:45:33;11.50;73.00
60353;DHT22;46196;52.970;6.954;2023-03-01T14:48:02;11.50;73.50
60353;DHT22;46196;52.970;6.954;2023-03-01T14:50:30;11.50;76.50
60353;DHT22;46196;52.970;6.954;2023-03-01T14:53:02;11.50;72.70
60353;DHT22;46196;52.970;6.954;2023-03-01T14:55:37;11.40;79.20
60353;DHT22;46196;52.970;6.954;2023-03-01T14:58:11;11.40;76.70
60353;DHT22;46196;52.970;6.954;2023-03-01T15:00:38;11.40;79.50
60353;DHT22;46196;52.970;6.954;2023-03-01T15:03:12;11.40;76.80
60353;DHT22;46196;52.970;6.954;2023-03-01T15:05:41;11.40;79.00
60353;DHT22;46196;52.970;6.954;2023-03-01T15:08:34;11.50;81.10
60353;DHT22;46196;52.970;6.954;2023-03-01T15:11:05;11.60;78.80
60353;DHT22;46196;52.970;6.954;2023-03-01T15:13:35;11.70;80.40
60353;DHT22;46196;52.970;6.954;2023-03-01T15:16:15;11.70;82.20
60353;DHT22;46196;52.970;6.954;2023-03-01T15:19:15;11.70;82.00
60353;DHT22;46196;52.970;6.954;2023-03-01T15:21:39;11.60;82.40
60353;DHT22;46196;52.970;6.954;2023-03-01T15:24:20;11.70;86.30
60353;DHT22;46196;52.970;6.954;2023-03-01T15:26:57;11.70;81.50
60353;DHT22;46196;52.970;6.954;2023-03-01T15:29:29;11.70;82.10
60353;DHT22;46196;52.970;6.954;2023-03-01T15:32:22;11.60;82.80
60353;DHT22;46196;52.970;6.954;2023-03-01T15:34:49;11.60;84.60
60353;DHT22;46196;52.970;6.954;2023-03-01T15:40:35;11.50;85.90
60353;DHT22;46196;52.970;6.954;2023-03-01T15:43:05;11.40;86.40
60353;DHT22;46196;52.970;6.954;2023-03-01T15:45:32;11.40;88.10
60353;DHT22;46196;52.970;6.954;2023-03-01T15:48:18;11.30;87.70
60353;DHT22;46196;52.970;6.954;2023-03-01T15:50:54;11.20;89.90
60353;DHT22;46196;52.970;6.954;2023-03-01T15:53:21;11.20;88.50
60353;DHT22;46196;52.970;6.954;2023-03-01T15:55:47;11.10;90.00
60353;DHT22;46196;52.970;6.954;2023-03-01T15:58:23;11.00;89.50
60353;DHT22;46196;52.970;6.954;2023-03-01T16:00:50;10.80;91.70
60353;DHT22;46196;52.970;6.954;2023-03-01T16:03:21;10.70;92.40
60353;DHT22;46196;52.970;6.954;2023-03-01T16:05:49;10.50;93.10
60353;DHT22;46196;52.970;6.954;2023-03-01T16:08:16;10.30;94.20
60353;DHT22;46196;52.970;6.954;2023-03-01T16:10:42;10.20;94.80
60353;DHT22;46196;52.970;6.954;2023-03-01T16:13:14;10.00;95.60
60353;DHT22;46196;52.970;6.954;2023-03-01T16:15:40;9.90;96.10
60353;DHT22;46196;52.970;6.954;2023-03-01T16:18:07;9.80;97.00
60353;DHT22;46196;52.970;6.954;2023-03-01T16:20:35;9.70;97.50
60353;DHT22;46196;52.970;6.954;2023-03-01T16:23:03;9.60;98.30
60353;DHT22;46196;52.970;6.954;2023-03-01T16:25:30;9.40;99.80
60353;DHT22;46196;52.970;6.954;2023-03-01T16:27:58;9.30;99.90
60353;DHT22;46196;52.970;6.954;2023-03-01T16:30:26;9.20;99.90
60353;DHT22;46196;52.970;6.954;2023-03-01T16:32:52;9.10;99.90
60353;DHT22;46196;52.970;6.954;2023-03-01T16:35:21;9.00;99.90
60353;DHT22;46196;52.970;6.954;2023-03-01T16:37:47;8.90;99.90
60353;DHT22;46196;52.970;6.954;2023-03-01T16:40:25;8.80;99.90
60353;DHT22;46196;52.970;6.954;2023-03-01T16:42:52;8.70;99.90
60353;DHT22;46196;52.970;6.954;2023-03-01T16:45:18;8.60;99.90
60353;DHT22;46196;52.970;6.954;2023-03-01T16:47:44;8.50;99.90
60353;DHT22;46196;52.970;6.954;2023-03-01T16:50:10;8.50;99.90
60353;DHT22;46196;52.970;6.954;2023-03-01T16:52:37;8.40;99.90
60353;DHT22;46196;52.970;6.954;2023-03-01T16:55:05;8.20;99.90
60353;DHT22;46196;52.970;6.954;2023-03-01T16:57:34;8.20;99.90
60353;DHT22;46196;52.970;6.954;2023-03-01T17:00:00;8.00;99.90
60353;DHT22;46196;52.970;6.954;2023-03-01T17:02:26;7.90;99.90
60353;DHT22;46196;52.970;6.954;2023-03-01T17:04:54;7.80;99.90
60353;DHT22;46196;52.970;6.954;2023-03-01T17:07:20;7.70;99.90
60353;DHT22;46196;52.970;6.954;2023-03-01T17:09:46;7.50;99.90
60353;DHT22;46196;52.970;6.954;2023-03-01T17:12:12;7.50;99.90
60353;DHT22;46196;52.970;6.954;2023-03-01T17:14:39;7.30;99.90
60353;DHT22;46196;52.970;6.954;2023-03-01T17:17:10;7.20;99.90
60353;DHT22;46196;52.970;6.954;2023-03-01T17:19:37;7.20;99.90
60353;DHT22;46196;52.970;6.954;2023-03-01T17:22:10;6.30;99.90
60353;DHT22;46196;52.970;6.954;2023-03-01T17:24:39;7.00;99.90
60353;DHT22;46196;52.970;6.954;2023-03-01T17:27:06;6.90;99.90
60353;DHT22;46196;52.970;6.954;2023-03-01T17:29:33;6.80;99.90
60353;DHT22;46196;52.970;6.954;2023-03-01T17:31:58;6.80;99.90
60353;DHT22;46196;52.970;6.954;2023-03-01T17:34:25;6.70;99.90
60353;DHT22;46196;52.970;6.954;2023-03-01T17:36:51;6.60;99.90
60353;DHT22;46196;52.970;6.954;2023-03-01T17:39:18;6.60;99.90
60353;DHT22;46196;52.970;6.954;2023-03-01T17:41:55;6.50;99.90
60353;DHT22;46196;52.970;6.954;2023-03-01T17:44:22;6.40;99.90
60353;DHT22;46196;52.970;6.954;2023-03-01T17:46:47;6.40;99.90
60353;DHT22;46196;52.970;6.954;2023-03-01T17:49:13;6.30;99.90
60353;DHT22;46196;52.970;6.954;2023-03-01T17:51:41;6.30;99.90
60353;DHT22;46196;52.970;6.954;2023-03-01T17:54:07;6.20;99.90
60353;DHT22;46196;52.970;6.954;2023-03-01T17:56:32;6.10;99.90
60353;DHT22;46196;52.970;6.954;2023-03-01T17:58:59;6.10;99.90